createdAt,value
2018-06-03T00:00:33.168Z,26.10
2018-06-03T00:01:37.388Z,25.85
2018-06-03T00:02:41.616Z,26.90
2018-06-03T00:03:45.844Z,25.72
2018-06-03T00:04:50.108Z,25.25
2018-06-03T00:05:54.292Z,26.50
2018-06-03T00:06:58.516Z,27.10
2018-06-03T00:08:02.775Z,26.02
2018-06-03T00:09:07.192Z,26.82
2018-06-03T00:10:11.440Z,27.02
2018-06-03T00:11:15.667Z,26.33
2018-06-03T00:12:19.948Z,27.60
2018-06-03T00:13:24.180Z,27.42
2018-06-03T00:14:28.383Z,28.23
2018-06-03T00:15:32.904Z,27.32
2018-06-03T00:16:37.059Z,28.90
2018-06-03T00:17:41.533Z,29.40
2018-06-03T00:18:45.753Z,27.20
2018-06-03T00:19:50.493Z,27.52
2018-06-03T00:21:05.864Z,27.15
2018-06-03T00:22:15.471Z,28.38
2018-06-03T00:23:19.966Z,29.55
2018-06-03T00:24:24.259Z,29.27
2018-06-03T00:25:28.517Z,30.43
2018-06-03T00:26:32.768Z,31.85
2018-06-03T00:27:37.056Z,29.45
2018-06-03T00:28:41.278Z,30.37
2018-06-03T00:29:45.463Z,28.25
2018-06-03T00:30:50.111Z,28.98
2018-06-03T00:31:54.345Z,30.05
2018-06-03T00:32:58.560Z,30.88
2018-06-03T00:34:02.982Z,30.35
2018-06-03T00:35:07.183Z,28.85
2018-06-03T00:36:23.647Z,31.35
2018-06-03T00:37:27.902Z,28.15
2018-06-03T00:38:32.078Z,28.25
2018-06-03T00:39:36.319Z,28.25
2018-06-03T00:40:40.494Z,27.55
2018-06-03T00:41:44.784Z,26.85
2018-06-03T00:42:48.947Z,26.30
2018-06-03T00:43:53.141Z,28.10
2018-06-03T00:44:57.319Z,28.90
2018-06-03T00:46:02.283Z,28.32
2018-06-03T00:47:06.587Z,26.45
2018-06-03T00:48:10.796Z,27.55
2018-06-03T00:49:14.996Z,26.60
2018-06-03T00:50:19.220Z,27.67
2018-06-03T00:51:23.391Z,26.17
2018-06-03T00:52:27.560Z,29.05
2018-06-03T00:53:31.743Z,27.55
2018-06-03T00:54:35.928Z,28.73
2018-06-03T00:55:40.629Z,27.80
2018-06-03T00:56:55.973Z,28.40
2018-06-03T00:58:00.140Z,30.08
2018-06-03T00:59:04.713Z,29.02
2018-06-03T01:00:09.175Z,30.15
2018-06-03T01:01:13.375Z,27.60
2018-06-03T01:02:17.563Z,27.80
2018-06-03T01:03:21.768Z,28.27
2018-06-03T01:04:25.999Z,29.80
2018-06-03T01:05:30.196Z,30.02
2018-06-03T01:06:34.496Z,32.23
2018-06-03T01:07:38.717Z,30.70
2018-06-03T01:08:42.948Z,31.75
2018-06-03T01:09:47.211Z,29.98
2018-06-03T01:10:51.427Z,28.40
2018-06-03T01:11:55.664Z,28.70
2018-06-03T01:12:59.886Z,29.40
2018-06-03T01:14:04.393Z,30.82
2018-06-03T01:15:08.763Z,31.15
2018-06-03T01:16:12.977Z,32.23
2018-06-03T01:17:17.228Z,30.77
2018-06-03T01:18:21.432Z,30.55
2018-06-03T01:19:25.617Z,31.75
2018-06-03T01:20:29.835Z,31.10
2018-06-03T01:21:34.037Z,31.30
2018-06-03T01:22:38.233Z,33.33
2018-06-03T01:23:42.781Z,31.82
2018-06-03T01:24:46.966Z,30.60
2018-06-03T01:25:51.164Z,31.00
2018-06-03T01:26:55.407Z,31.23
2018-06-03T01:28:00.121Z,30.37
2018-06-03T01:29:04.343Z,31.17
2018-06-03T01:30:08.553Z,30.35
2018-06-03T01:31:12.963Z,31.10
2018-06-03T01:32:17.150Z,32.40
2018-06-03T01:33:21.375Z,30.05
2018-06-03T01:34:25.670Z,28.92
2018-06-03T01:35:29.854Z,31.45
2018-06-03T01:36:34.157Z,30.15
2018-06-03T01:37:38.445Z,32.50
2018-06-03T01:38:42.641Z,31.45
2018-06-03T01:39:46.835Z,31.20
2018-06-03T01:40:51.096Z,29.50
2018-06-03T01:41:55.276Z,30.08
2018-06-03T01:42:59.506Z,30.62
2018-06-03T01:44:03.757Z,30.60
2018-06-03T01:45:07.940Z,32.93
2018-06-03T01:46:12.140Z,30.55
2018-06-03T01:47:16.328Z,33.33
2018-06-03T01:48:20.648Z,32.33
2018-06-03T01:49:24.877Z,32.40
2018-06-03T01:50:29.415Z,34.23
2018-06-03T01:51:33.659Z,31.87
2018-06-03T01:52:37.916Z,32.88
2018-06-03T01:53:42.662Z,32.53
2018-06-03T01:54:46.964Z,32.67
2018-06-03T01:55:51.172Z,32.45
2018-06-03T01:56:55.345Z,33.15
2018-06-03T01:57:59.535Z,32.28
2018-06-03T01:59:03.777Z,32.50
2018-06-03T02:00:08.030Z,32.95
2018-06-03T02:01:12.218Z,33.73
2018-06-03T02:02:16.422Z,33.50
2018-06-03T02:03:20.613Z,34.15
2018-06-03T02:04:24.823Z,35.30
2018-06-03T02:05:29.123Z,35.13
2018-06-03T02:06:33.376Z,35.13
2018-06-03T02:07:37.553Z,37.93
2018-06-03T02:08:41.788Z,37.50
2018-06-03T02:09:45.961Z,35.80
2018-06-03T02:10:50.203Z,35.95
2018-06-03T02:11:54.385Z,37.17
2018-06-03T02:12:58.583Z,37.13
2018-06-03T02:14:02.776Z,38.33
2018-06-03T02:15:07.114Z,37.80
2018-06-03T02:16:11.609Z,36.93
2018-06-03T02:17:15.775Z,34.00
2018-06-03T02:18:19.963Z,38.45
2018-06-03T02:19:24.352Z,37.03
2018-06-03T02:20:28.540Z,36.38
2018-06-03T02:21:32.793Z,37.20
2018-06-03T02:22:36.979Z,41.33
2018-06-03T02:23:41.376Z,37.10
2018-06-03T02:24:45.951Z,39.08
2018-06-03T02:25:50.130Z,36.65
2018-06-03T02:26:54.367Z,39.13
2018-06-03T02:27:58.532Z,36.10
2018-06-03T02:29:02.741Z,36.80
2018-06-03T02:30:06.950Z,35.28
2018-06-03T02:31:11.116Z,39.53
2018-06-03T02:32:15.460Z,38.00
2018-06-03T02:33:19.631Z,36.42
2018-06-03T02:34:23.839Z,39.83
2018-06-03T02:35:28.072Z,39.58
2018-06-03T02:36:32.276Z,36.30
2018-06-03T02:37:36.496Z,38.70
2018-06-03T02:38:40.730Z,38.78
2018-06-03T02:39:44.919Z,37.33
2018-06-03T02:40:49.084Z,41.13
2018-06-03T02:41:53.277Z,39.30
2018-06-03T02:42:57.517Z,39.33
2018-06-03T02:44:01.724Z,41.20
2018-06-03T02:45:06.217Z,40.65
2018-06-03T02:46:10.411Z,38.38
2018-06-03T02:47:15.004Z,40.75
2018-06-03T02:48:19.317Z,40.50
2018-06-03T02:49:23.496Z,42.70
2018-06-03T02:50:28.467Z,38.80
2018-06-03T02:51:32.725Z,38.33
2018-06-03T02:52:36.951Z,38.50
2018-06-03T02:53:41.184Z,40.58
2018-06-03T02:54:45.362Z,39.50
2018-06-03T02:55:49.541Z,38.08
2018-06-03T02:56:53.758Z,39.50
2018-06-03T02:57:57.954Z,41.60
2018-06-03T02:59:02.184Z,40.05
2018-06-03T03:00:06.417Z,40.00
2018-06-03T03:01:10.668Z,40.95
2018-06-03T03:02:14.875Z,38.88
2018-06-03T03:03:19.078Z,38.95
2018-06-03T03:04:23.279Z,38.50
2018-06-03T03:05:27.499Z,37.90
2018-06-03T03:06:31.725Z,40.48
2018-06-03T03:07:36.055Z,40.55
2018-06-03T03:08:40.376Z,39.25
2018-06-03T03:09:44.557Z,39.90
2018-06-03T03:10:48.747Z,39.48
2018-06-03T03:11:52.917Z,37.03
2018-06-03T03:12:57.149Z,37.38
2018-06-03T03:14:01.340Z,38.10
2018-06-03T03:15:05.707Z,38.75
2018-06-03T03:16:09.870Z,38.38
2018-06-03T03:17:14.062Z,39.13
2018-06-03T03:18:18.273Z,38.48
2018-06-03T03:19:22.462Z,37.50
2018-06-03T03:20:26.680Z,37.73
2018-06-03T03:21:30.907Z,38.88
2018-06-03T03:22:35.108Z,39.40
2018-06-03T03:23:39.339Z,38.33
2018-06-03T03:24:43.520Z,38.42
2018-06-03T03:25:47.989Z,38.53
2018-06-03T03:26:52.185Z,36.30
2018-06-03T03:27:56.413Z,36.58
2018-06-03T03:29:00.591Z,37.33
2018-06-03T03:30:04.860Z,36.15
2018-06-03T03:31:09.114Z,37.83
2018-06-03T03:32:13.302Z,38.38
2018-06-03T03:33:17.487Z,37.30
2018-06-03T03:34:21.729Z,35.20
2018-06-03T03:35:25.948Z,37.40
2018-06-03T03:36:30.101Z,37.85
2018-06-03T03:37:34.296Z,39.38
2018-06-03T03:38:38.520Z,39.85
2018-06-03T03:39:42.829Z,37.38
2018-06-03T03:40:47.033Z,37.75
2018-06-03T03:41:51.236Z,36.20
2018-06-03T03:42:55.641Z,37.67
2018-06-03T03:43:59.830Z,38.98
2018-06-03T03:45:04.039Z,37.90
2018-06-03T03:46:08.223Z,38.95
2018-06-03T03:47:12.598Z,35.78
2018-06-03T03:48:16.875Z,37.17
2018-06-03T03:49:21.136Z,38.35
2018-06-03T03:50:25.392Z,37.42
2018-06-03T03:51:29.575Z,38.13
2018-06-03T03:52:33.837Z,37.78
2018-06-03T03:53:38.028Z,39.18
2018-06-03T03:54:42.304Z,36.83
2018-06-03T03:55:46.527Z,37.20
2018-06-03T03:56:50.760Z,37.67
2018-06-03T03:57:55.027Z,39.13
2018-06-03T03:58:59.292Z,39.18
2018-06-03T04:00:03.541Z,37.80
2018-06-03T04:01:07.736Z,39.20
2018-06-03T04:02:11.925Z,37.53
2018-06-03T04:03:16.408Z,37.80
2018-06-03T04:04:20.635Z,37.10
2018-06-03T04:05:24.834Z,34.10
2018-06-03T04:06:29.072Z,39.70
2018-06-03T04:07:33.582Z,36.53
2018-06-03T04:08:38.043Z,37.42
2018-06-03T04:09:42.634Z,37.30
2018-06-03T04:10:46.858Z,38.88
2018-06-03T04:11:51.040Z,39.65
2018-06-03T04:12:55.244Z,38.05
2018-06-03T04:13:59.456Z,38.50
2018-06-03T04:15:03.686Z,39.40
2018-06-03T04:16:08.302Z,37.35
2018-06-03T04:17:13.909Z,38.38
2018-06-03T04:18:18.093Z,40.63
2018-06-03T04:19:22.341Z,39.78
2018-06-03T04:20:26.800Z,39.05
2018-06-03T04:21:30.989Z,40.60
2018-06-03T04:22:35.244Z,40.95
2018-06-03T04:23:39.488Z,40.20
2018-06-03T04:24:43.709Z,40.55
2018-06-03T04:25:48.208Z,40.55
2018-06-03T04:26:52.428Z,42.43
2018-06-03T04:27:56.631Z,39.05
2018-06-03T04:29:01.051Z,40.17
2018-06-03T04:30:05.313Z,41.33
2018-06-03T04:31:09.532Z,42.83
2018-06-03T04:32:13.788Z,42.62
2018-06-03T04:33:18.152Z,42.48
2018-06-03T04:34:22.380Z,41.25
2018-06-03T04:35:26.604Z,41.80
2018-06-03T04:36:31.592Z,41.00
2018-06-03T04:37:35.783Z,41.50
2018-06-03T04:38:40.046Z,39.88
2018-06-03T04:39:44.260Z,42.48
2018-06-03T04:40:48.521Z,42.00
2018-06-03T04:41:52.805Z,41.28
2018-06-03T04:42:57.107Z,43.73
2018-06-03T04:44:01.423Z,44.58
2018-06-03T04:45:05.644Z,42.23
2018-06-03T04:46:10.552Z,42.95
2018-06-03T04:47:14.816Z,43.48
2018-06-03T04:48:19.010Z,43.42
2018-06-03T04:49:23.188Z,41.05
2018-06-03T04:50:27.934Z,43.42
2018-06-03T04:51:32.168Z,44.98
2018-06-03T04:52:36.401Z,43.85
2018-06-03T04:53:40.883Z,42.03
2018-06-03T04:54:45.120Z,44.42
2018-06-03T04:55:49.331Z,41.73
2018-06-03T04:56:53.563Z,42.30
2018-06-03T04:57:57.891Z,43.58
2018-06-03T04:59:02.145Z,45.30
2018-06-03T05:00:06.401Z,47.43
2018-06-03T05:01:10.601Z,43.70
2018-06-03T05:02:14.844Z,47.90
2018-06-03T05:03:19.049Z,44.65
2018-06-03T05:04:23.245Z,47.90
2018-06-03T05:05:27.407Z,45.38
2018-06-03T05:06:31.658Z,46.60
2018-06-03T05:07:35.875Z,47.83
2018-06-03T05:08:40.429Z,44.65
2018-06-03T05:09:44.643Z,45.35
2018-06-03T05:10:48.877Z,42.80
2018-06-03T05:11:53.208Z,43.58
2018-06-03T05:12:57.420Z,46.20
2018-06-03T05:14:01.600Z,44.03
2018-06-03T05:15:06.174Z,42.65
2018-06-03T05:16:10.468Z,43.70
2018-06-03T05:17:14.661Z,43.33
2018-06-03T05:18:18.969Z,42.50
2018-06-03T05:19:23.188Z,41.68
2018-06-03T05:20:27.391Z,40.55
2018-06-03T05:21:31.599Z,39.75
2018-06-03T05:22:35.839Z,41.33
2018-06-03T05:23:40.022Z,42.10
2018-06-03T05:24:44.233Z,41.37
2018-06-03T05:25:48.983Z,39.63
2018-06-03T05:26:53.191Z,38.67
2018-06-03T05:27:57.563Z,39.73
2018-06-03T05:29:01.804Z,42.30
2018-06-03T05:30:06.145Z,40.03
2018-06-03T05:31:10.452Z,39.60
2018-06-03T05:32:14.860Z,39.38
2018-06-03T05:33:19.188Z,38.83
2018-06-03T05:34:23.551Z,41.08
2018-06-03T05:35:28.010Z,39.35
2018-06-03T05:36:32.215Z,39.08
2018-06-03T05:37:36.427Z,40.28
2018-06-03T05:38:40.655Z,41.90
2018-06-03T05:39:44.960Z,41.68
2018-06-03T05:40:49.313Z,41.02
2018-06-03T05:41:53.596Z,38.70
2018-06-03T05:42:57.797Z,41.30
2018-06-03T05:44:02.008Z,40.03
2018-06-03T05:45:06.221Z,40.12
2018-06-03T05:46:10.424Z,40.08
2018-06-03T05:47:14.602Z,37.40
2018-06-03T05:48:18.824Z,38.42
2018-06-03T05:49:23.061Z,40.15
2018-06-03T05:50:27.299Z,42.10
2018-06-03T05:51:31.471Z,39.35
2018-06-03T05:52:35.755Z,38.48
2018-06-03T05:53:40.147Z,40.78
2018-06-03T05:54:44.324Z,39.30
2018-06-03T05:55:48.664Z,39.50
2018-06-03T05:56:52.847Z,40.48
2018-06-03T05:57:57.159Z,40.45
2018-06-03T05:59:01.417Z,40.05
2018-06-03T06:00:05.776Z,42.27
2018-06-03T06:01:10.019Z,41.65
2018-06-03T06:02:14.287Z,41.73
2018-06-03T06:03:18.501Z,41.02
2018-06-03T06:04:22.669Z,40.90
2018-06-03T06:05:27.172Z,40.75
2018-06-03T06:06:31.425Z,38.35
2018-06-03T06:07:35.652Z,39.38
2018-06-03T06:08:39.887Z,42.48
2018-06-03T06:09:44.107Z,38.63
2018-06-03T06:10:48.374Z,40.63
2018-06-03T06:11:52.647Z,40.92
2018-06-03T06:12:56.851Z,39.55
2018-06-03T06:14:01.035Z,40.90
2018-06-03T06:15:05.479Z,41.55
2018-06-03T06:16:09.692Z,40.63
2018-06-03T06:17:14.240Z,42.70
2018-06-03T06:18:18.443Z,40.45
2018-06-03T06:19:22.679Z,41.83
2018-06-03T06:20:26.872Z,41.98
2018-06-03T06:21:31.093Z,38.95
2018-06-03T06:22:35.311Z,41.40
2018-06-03T06:23:39.500Z,41.20
2018-06-03T06:24:43.695Z,43.48
2018-06-03T06:25:48.269Z,42.78
2018-06-03T06:26:52.507Z,43.25
2018-06-03T06:27:56.743Z,41.98
2018-06-03T06:29:00.950Z,45.25
2018-06-03T06:30:05.896Z,41.98
2018-06-03T06:31:10.132Z,41.95
2018-06-03T06:32:14.366Z,41.28
2018-06-03T06:33:18.834Z,41.13
2018-06-03T06:34:23.011Z,40.65
2018-06-03T06:35:27.297Z,41.42
2018-06-03T06:36:31.507Z,38.65
2018-06-03T06:37:35.717Z,40.80
2018-06-03T06:38:39.957Z,41.10
2018-06-03T06:39:44.123Z,41.25
2018-06-03T06:40:48.409Z,41.50
2018-06-03T06:41:52.564Z,40.85
2018-06-03T06:42:56.763Z,40.10
2018-06-03T06:44:00.995Z,44.05
2018-06-03T06:45:05.222Z,42.43
2018-06-03T06:46:09.424Z,43.25
2018-06-03T06:47:13.614Z,43.20
2018-06-03T06:48:17.822Z,41.98
2018-06-03T06:49:22.030Z,42.05
2018-06-03T06:50:26.256Z,40.40
2018-06-03T06:51:30.451Z,41.60
2018-06-03T06:52:34.696Z,41.48
2018-06-03T06:53:38.893Z,39.83
2018-06-03T06:54:43.157Z,42.40
2018-06-03T06:55:47.371Z,41.08
2018-06-03T06:56:51.605Z,40.95
2018-06-03T06:57:55.849Z,40.73
2018-06-03T06:59:00.055Z,41.18
2018-06-03T07:00:04.356Z,38.13
2018-06-03T07:01:08.551Z,43.23
2018-06-03T07:02:12.795Z,40.70
2018-06-03T07:03:17.021Z,40.35
2018-06-03T07:04:21.279Z,42.50
2018-06-03T07:05:25.534Z,40.55
2018-06-03T07:06:29.738Z,39.65
2018-06-03T07:07:33.946Z,39.48
2018-06-03T07:08:38.393Z,41.10
2018-06-03T07:09:42.659Z,40.05
2018-06-03T07:10:46.927Z,39.80
2018-06-03T07:11:52.123Z,37.90
2018-06-03T07:12:56.449Z,36.40
2018-06-03T07:14:00.639Z,34.60
2018-06-03T07:15:04.901Z,36.23
2018-06-03T07:16:09.152Z,35.08
2018-06-03T07:17:13.331Z,35.78
2018-06-03T07:18:17.520Z,39.95
2018-06-03T07:19:21.744Z,36.45
2018-06-03T07:20:25.927Z,40.25
2018-06-03T07:21:30.181Z,38.63
2018-06-03T07:22:34.444Z,39.58
2018-06-03T07:23:38.690Z,40.00
2018-06-03T07:24:44.963Z,42.48
2018-06-03T07:25:49.236Z,38.38
2018-06-03T07:26:53.524Z,39.98
2018-06-03T07:27:57.752Z,38.17
2018-06-03T07:29:01.931Z,42.03
2018-06-03T07:30:06.279Z,41.30
2018-06-03T07:31:10.576Z,41.00
2018-06-03T07:32:14.939Z,40.85
2018-06-03T07:33:19.189Z,43.58
2018-06-03T07:34:23.396Z,42.40
2018-06-03T07:35:27.886Z,41.25
2018-06-03T07:36:32.099Z,44.05
2018-06-03T07:37:36.376Z,41.68
2018-06-03T07:38:40.923Z,40.17
2018-06-03T07:39:45.156Z,40.75
2018-06-03T07:40:49.343Z,43.00
2018-06-03T07:41:53.743Z,42.78
2018-06-03T07:42:58.104Z,41.73
2018-06-03T07:44:02.341Z,41.75
2018-06-03T07:45:06.635Z,41.42
2018-06-03T07:46:10.923Z,39.08
2018-06-03T07:47:15.195Z,38.90
2018-06-03T07:48:19.408Z,38.88
2018-06-03T07:49:23.670Z,38.48
2018-06-03T07:50:28.511Z,39.73
2018-06-03T07:51:32.651Z,38.35
2018-06-03T07:52:36.901Z,41.00
2018-06-03T07:53:41.164Z,39.03
2018-06-03T07:54:45.362Z,40.12
2018-06-03T07:55:49.551Z,39.30
2018-06-03T07:56:53.787Z,39.70
2018-06-03T07:57:57.981Z,39.50
2018-06-03T07:59:02.221Z,37.98
2018-06-03T08:00:06.486Z,40.90
2018-06-03T08:01:10.685Z,39.98
2018-06-03T08:02:13.871Z,40.60
2018-06-03T08:03:17.911Z,41.13
2018-06-03T08:04:22.159Z,42.83
2018-06-03T08:05:26.609Z,44.73
2018-06-03T08:06:30.867Z,41.13
2018-06-03T08:07:35.069Z,43.30
2018-06-03T08:08:39.295Z,42.62
2018-06-03T08:09:43.823Z,40.38
2018-06-03T08:10:48.058Z,41.68
2018-06-03T08:11:52.366Z,42.88
2018-06-03T08:12:56.555Z,44.55
2018-06-03T08:14:00.742Z,42.10
2018-06-03T08:15:05.033Z,40.58
2018-06-03T08:16:09.257Z,42.88
2018-06-03T08:17:13.450Z,44.35
2018-06-03T08:18:17.658Z,42.67
2018-06-03T08:19:21.891Z,45.33
2018-06-03T08:20:26.485Z,41.23
2018-06-03T08:21:30.707Z,44.00
2018-06-03T08:22:34.927Z,46.37
2018-06-03T08:23:39.135Z,44.03
2018-06-03T08:24:43.323Z,47.20
2018-06-03T08:25:47.556Z,48.23
2018-06-03T08:26:52.020Z,45.92
2018-06-03T08:27:56.212Z,43.30
2018-06-03T08:29:00.448Z,44.40
2018-06-03T08:30:04.870Z,43.87
2018-06-03T08:31:09.160Z,45.70
2018-06-03T08:32:13.549Z,45.20
2018-06-03T08:33:17.805Z,45.15
2018-06-03T08:34:22.013Z,42.45
2018-06-03T08:35:26.181Z,45.40
2018-06-03T08:36:30.382Z,47.17
2018-06-03T08:37:34.607Z,45.28
2018-06-03T08:38:38.802Z,44.67
2018-06-03T08:39:42.983Z,45.27
2018-06-03T08:40:47.307Z,45.45
2018-06-03T08:41:51.549Z,45.83
2018-06-03T08:42:55.772Z,46.02
2018-06-03T08:44:00.032Z,44.53
2018-06-03T08:45:04.257Z,37.17
2018-06-03T08:46:08.468Z,40.20
2018-06-03T08:47:12.873Z,39.60
2018-06-03T08:48:17.052Z,35.85
2018-06-03T08:49:21.228Z,38.70
2018-06-03T08:50:25.461Z,37.25
2018-06-03T08:51:29.657Z,38.20
2018-06-03T08:52:33.871Z,41.60
2018-06-03T08:53:38.302Z,40.45
2018-06-03T08:54:42.579Z,35.92
2018-06-03T08:55:46.784Z,36.20
2018-06-03T08:56:50.987Z,34.95
2018-06-03T08:57:55.207Z,36.95
2018-06-03T08:58:59.409Z,33.63
2018-06-03T09:00:03.673Z,33.05
2018-06-03T09:01:08.304Z,32.45
2018-06-03T09:02:12.743Z,34.98
2018-06-03T09:03:16.979Z,36.93
2018-06-03T09:04:21.176Z,34.75
2018-06-03T09:05:25.438Z,32.33
2018-06-03T09:06:29.608Z,38.23
2018-06-03T09:07:34.344Z,37.20
2018-06-03T09:08:38.635Z,36.88
2018-06-03T09:09:42.900Z,39.13
2018-06-03T09:10:47.122Z,39.05
2018-06-03T09:11:51.329Z,36.98
2018-06-03T09:12:55.551Z,37.00
2018-06-03T09:13:59.812Z,34.20
2018-06-03T09:15:04.091Z,39.38
2018-06-03T09:16:08.328Z,38.53
2018-06-03T09:17:12.557Z,37.73
2018-06-03T09:18:16.765Z,35.88
2018-06-03T09:19:21.176Z,34.53
2018-06-03T09:20:25.363Z,35.90
2018-06-03T09:21:29.556Z,35.65
2018-06-03T09:22:33.766Z,37.03
2018-06-03T09:23:37.975Z,37.67
2018-06-03T09:24:42.364Z,40.67
2018-06-03T09:25:46.549Z,39.13
2018-06-03T09:26:50.980Z,38.90
2018-06-03T09:27:55.212Z,35.70
2018-06-03T09:28:59.416Z,34.70
2018-06-03T09:30:03.818Z,34.77
2018-06-03T09:31:08.243Z,36.20
2018-06-03T09:32:12.515Z,35.00
2018-06-03T09:33:16.715Z,34.63
2018-06-03T09:34:20.938Z,35.03
2018-06-03T09:35:25.648Z,33.95
2018-06-03T09:36:29.917Z,36.00
2018-06-03T09:37:34.113Z,36.70
2018-06-03T09:38:38.329Z,39.20
2018-06-03T09:39:42.625Z,36.83
2018-06-03T09:40:46.848Z,39.00
2018-06-03T09:41:51.088Z,38.20
2018-06-03T09:42:55.414Z,36.80
2018-06-03T09:43:59.624Z,35.43
2018-06-03T09:45:03.903Z,38.05
2018-06-03T09:46:08.245Z,33.90
2018-06-03T09:47:12.552Z,32.20
2018-06-03T09:48:16.820Z,32.17
2018-06-03T09:49:21.091Z,32.83
2018-06-03T09:50:25.486Z,32.00
2018-06-03T09:51:29.880Z,34.05
2018-06-03T09:52:34.115Z,33.77
2018-06-03T09:53:38.320Z,30.27
2018-06-03T09:54:42.527Z,35.05
2018-06-03T09:55:46.781Z,33.20
2018-06-03T09:56:51.080Z,32.20
2018-06-03T09:57:55.281Z,34.53
2018-06-03T09:58:59.519Z,32.73
2018-06-03T10:00:04.024Z,35.77
2018-06-03T10:01:08.224Z,30.17
2018-06-03T10:02:12.510Z,31.97
2018-06-03T10:03:16.725Z,31.50
2018-06-03T10:04:20.958Z,34.23
2018-06-03T10:05:25.159Z,38.27
2018-06-03T10:06:29.365Z,35.93
2018-06-03T10:07:33.680Z,36.50
2018-06-03T10:08:37.909Z,32.73
2018-06-03T10:09:42.103Z,32.70
2018-06-03T10:10:46.313Z,37.13
2018-06-03T10:11:50.701Z,33.47
2018-06-03T10:12:54.954Z,37.13
2018-06-03T10:13:59.155Z,40.92
2018-06-03T10:15:03.421Z,42.27
2018-06-03T10:16:07.724Z,40.63
2018-06-03T10:17:11.984Z,38.70
2018-06-03T10:18:16.246Z,39.40
2018-06-03T10:19:20.447Z,36.90
2018-06-03T10:20:24.726Z,36.67
2018-06-03T10:21:29.099Z,37.80
2018-06-03T10:22:33.349Z,36.20
2018-06-03T10:23:37.599Z,35.10
2018-06-03T10:24:41.832Z,36.50
2018-06-03T10:25:46.062Z,44.00
2018-06-03T10:26:50.391Z,41.17
2018-06-03T10:27:54.932Z,40.80
2018-06-03T10:28:59.237Z,36.27
2018-06-03T10:30:03.752Z,36.63
2018-06-03T10:31:08.013Z,39.00
2018-06-03T10:32:12.312Z,33.30
2018-06-03T10:33:16.545Z,36.50
2018-06-03T10:34:20.780Z,34.38
2018-06-03T10:35:24.997Z,37.20
2018-06-03T10:36:29.196Z,35.73
2018-06-03T10:37:33.443Z,36.80
2018-06-03T10:38:37.685Z,32.33
2018-06-03T10:39:41.958Z,32.47
2018-06-03T10:40:46.212Z,38.97
2018-06-03T10:41:50.444Z,36.90
2018-06-03T10:42:54.873Z,37.57
2018-06-03T10:43:59.314Z,35.53
2018-06-03T10:45:03.752Z,34.60
2018-06-03T10:46:08.032Z,35.40
2018-06-03T10:47:12.270Z,34.77
2018-06-03T10:48:16.548Z,35.40
2018-06-03T10:49:20.747Z,31.63
2018-06-03T10:50:24.964Z,31.87
2018-06-03T10:51:29.196Z,30.03
2018-06-03T10:52:33.438Z,29.73
2018-06-03T10:53:37.663Z,34.57
2018-06-03T10:54:41.880Z,31.93
2018-06-03T10:55:46.176Z,35.27
2018-06-03T10:56:50.552Z,31.80
2018-06-03T10:57:54.787Z,32.77
2018-06-03T10:58:59.144Z,32.33
2018-06-03T11:00:03.449Z,34.10
2018-06-03T11:01:07.676Z,34.07
2018-06-03T11:02:11.960Z,32.60
2018-06-03T11:03:16.204Z,31.93
2018-06-03T11:04:20.476Z,31.70
2018-06-03T11:05:24.615Z,33.60
2018-06-03T11:06:28.821Z,33.77
2018-06-03T11:07:33.028Z,32.33
2018-06-03T11:08:37.351Z,32.67
2018-06-03T11:09:41.546Z,30.92
2018-06-03T11:10:45.728Z,33.10
2018-06-03T11:11:49.950Z,30.37
2018-06-03T11:12:54.344Z,31.27
2018-06-03T11:13:58.549Z,30.80
2018-06-03T11:15:02.788Z,28.60
2018-06-03T11:16:06.965Z,26.73
2018-06-03T11:17:11.275Z,23.77
2018-06-03T11:18:15.503Z,22.30
2018-06-03T11:19:19.940Z,21.10
2018-06-03T11:20:24.143Z,23.87
2018-06-03T11:21:28.368Z,22.80
2018-06-03T11:22:32.657Z,23.33
2018-06-03T11:23:36.864Z,22.13
2018-06-03T11:24:41.089Z,25.93
2018-06-03T11:25:51.738Z,26.30
2018-06-03T11:26:55.929Z,25.53
2018-06-03T11:28:00.511Z,25.60
2018-06-03T11:29:04.798Z,25.07
2018-06-03T11:30:09.027Z,24.13
2018-06-03T11:31:13.260Z,26.07
2018-06-03T11:32:17.491Z,28.97
2018-06-03T11:33:21.828Z,31.30
2018-06-03T11:34:26.040Z,30.93
2018-06-03T11:35:30.214Z,33.47
2018-06-03T11:36:34.393Z,33.50
2018-06-03T11:37:38.598Z,35.63
2018-06-03T11:38:42.832Z,38.80
2018-06-03T11:39:47.013Z,33.13
2018-06-03T11:40:51.360Z,34.93
2018-06-03T11:41:55.836Z,36.33
2018-06-03T11:43:00.029Z,36.13
2018-06-03T11:44:04.430Z,36.30
2018-06-03T11:45:08.631Z,33.53
2018-06-03T11:46:19.420Z,35.33
2018-06-03T11:47:23.652Z,34.83
2018-06-03T11:48:27.868Z,32.60
2018-06-03T11:49:32.071Z,35.43
2018-06-03T11:50:36.277Z,32.50
2018-06-03T11:51:40.476Z,32.63
2018-06-03T11:52:44.777Z,34.77
2018-06-03T11:53:48.980Z,32.65
2018-06-03T11:54:53.215Z,34.00
2018-06-03T11:55:57.385Z,31.20
2018-06-03T11:57:02.830Z,31.10
2018-06-03T11:58:43.270Z,30.70
2018-06-03T11:59:47.474Z,31.30
2018-06-03T12:00:51.683Z,30.33
2018-06-03T12:01:55.925Z,32.10
2018-06-03T12:03:00.500Z,29.43
2018-06-03T12:04:05.199Z,32.13
2018-06-03T12:05:09.444Z,30.57
2018-06-03T12:06:13.705Z,29.47
2018-06-03T12:07:17.914Z,30.60
2018-06-03T12:08:22.124Z,30.83
2018-06-03T12:09:26.539Z,30.97
2018-06-03T12:10:30.727Z,30.13
2018-06-03T12:11:35.032Z,28.10
2018-06-03T12:12:39.226Z,31.03
2018-06-03T12:13:43.428Z,28.47
2018-06-03T12:14:47.631Z,26.47
2018-06-03T12:15:51.860Z,26.90
2018-06-03T12:16:56.144Z,30.57
2018-06-03T12:18:00.341Z,32.30
2018-06-03T12:19:04.557Z,31.07
2018-06-03T12:20:08.735Z,31.30
2018-06-03T12:21:12.924Z,33.10
2018-06-03T12:22:17.132Z,32.00
2018-06-03T12:23:21.315Z,30.50
2018-06-03T12:24:25.536Z,30.60
2018-06-03T12:25:29.752Z,32.70
2018-06-03T12:26:34.176Z,30.60
2018-06-03T12:27:38.404Z,30.70
2018-06-03T12:28:43.026Z,31.10
2018-06-03T12:29:47.177Z,32.77
2018-06-03T12:30:51.376Z,33.40
2018-06-03T12:31:55.583Z,35.40
2018-06-03T12:32:59.777Z,32.53
2018-06-03T12:34:03.948Z,35.87
2018-06-03T12:35:08.120Z,34.80
2018-06-03T12:36:12.391Z,32.50
2018-06-03T12:37:16.561Z,31.93
2018-06-03T12:38:20.790Z,35.90
2018-06-03T12:39:25.113Z,33.90
2018-06-03T12:40:29.381Z,34.00
2018-06-03T12:41:33.587Z,32.70
2018-06-03T12:42:37.848Z,30.97
2018-06-03T12:43:42.063Z,32.00
2018-06-03T12:44:46.311Z,31.67
2018-06-03T12:45:50.708Z,30.47
2018-06-03T12:46:54.982Z,35.10
2018-06-03T12:47:59.319Z,31.70
2018-06-03T12:49:03.660Z,32.60
2018-06-03T12:50:07.896Z,31.70
2018-06-03T12:51:12.068Z,31.80
2018-06-03T12:52:16.262Z,32.97
2018-06-03T12:53:20.428Z,33.43
2018-06-03T12:54:24.717Z,28.40
2018-06-03T12:55:29.162Z,30.77
2018-06-03T12:56:33.443Z,31.10
2018-06-03T12:57:37.655Z,31.27
2018-06-03T12:58:41.906Z,31.97
2018-06-03T12:59:46.129Z,32.97
2018-06-03T13:00:50.332Z,33.17
2018-06-03T13:01:54.583Z,33.77
2018-06-03T13:02:58.919Z,33.37
2018-06-03T13:04:03.235Z,31.90
2018-06-03T13:05:07.459Z,33.37
2018-06-03T13:06:11.672Z,32.83
2018-06-03T13:07:15.884Z,29.77
2018-06-03T13:08:20.154Z,30.13
2018-06-03T13:09:24.378Z,32.27
2018-06-03T13:10:28.608Z,30.77
2018-06-03T13:11:33.061Z,31.03
2018-06-03T13:12:37.307Z,29.53
2018-06-03T13:13:41.521Z,32.17
2018-06-03T13:14:45.717Z,32.67
2018-06-03T13:15:50.018Z,33.73
2018-06-03T13:16:54.447Z,30.40
2018-06-03T13:17:58.681Z,30.83
2018-06-03T13:19:02.904Z,31.50
2018-06-03T13:20:07.311Z,31.03
2018-06-03T13:21:11.524Z,29.20
2018-06-03T13:22:16.078Z,29.70
2018-06-03T13:23:20.324Z,32.17
2018-06-03T13:24:24.486Z,29.67
2018-06-03T13:25:28.722Z,31.00
2018-06-03T13:26:33.016Z,28.50
2018-06-03T13:27:37.467Z,30.40
2018-06-03T13:28:41.694Z,28.90
2018-06-03T13:29:45.938Z,26.67
2018-06-03T13:30:50.192Z,27.80
2018-06-03T13:31:54.493Z,28.80
2018-06-03T13:32:58.746Z,29.57
2018-06-03T13:34:02.980Z,30.37
2018-06-03T13:35:07.228Z,34.10
2018-06-03T13:36:11.480Z,31.57
2018-06-03T13:37:15.824Z,32.47
2018-06-03T13:38:20.211Z,32.27
2018-06-03T13:39:24.433Z,30.50
2018-06-03T13:40:28.648Z,32.20
2018-06-03T13:41:32.824Z,28.80
2018-06-03T13:42:37.237Z,29.63
2018-06-03T13:43:41.442Z,32.40
2018-06-03T13:44:45.619Z,28.93
2018-06-03T13:45:49.852Z,30.93
2018-06-03T13:46:54.037Z,29.90
2018-06-03T13:47:58.280Z,30.00
2018-06-03T13:49:02.531Z,27.93